Terminal Aerodrome Forecast
Issued by NWS

Home | Current Version | Previous Version | Text Only | Print | Product List | Glossary On
Versions: 1 2 3 4 5 6 7 8 9 10 11 12 13 14
000
FTUS45 KREV 222338
TAFTRK
TAF
KTRK 222338Z 2300/2324 22008KT 1/2SM SN VV005
     FM230900 22006KT 4SM -SHSN BR SCT009 BKN020
     FM231200 VRB03KT P6SM VCSH SCT025
     FM231900 23007KT 5SM -SHSN BKN020=

USA.gov is the U.S. government's official web portal to all federal, state and local government web resources and services.